sensor_id;sensor_type;location;lat;lon;timestamp;P1;durP1;ratioP1;P2;durP2;ratioP2
7479;SDS011;3781;42.272;22.658;2022-08-27T00:01:58;4.57;;;2.23;;
7479;SDS011;3781;42.272;22.658;2022-08-27T00:04:25;2.60;;;1.97;;
7479;SDS011;3781;42.272;22.658;2022-08-27T00:06:52;2.47;;;2.30;;
7479;SDS011;3781;42.272;22.658;2022-08-27T00:09:19;4.33;;;2.03;;
7479;SDS011;3781;42.272;22.658;2022-08-27T00:11:46;2.17;;;1.80;;
7479;SDS011;3781;42.272;22.658;2022-08-27T00:14:13;4.80;;;1.90;;
7479;SDS011;3781;42.272;22.658;2022-08-27T00:16:40;2.27;;;1.83;;
7479;SDS011;3781;42.272;22.658;2022-08-27T00:19:09;2.60;;;1.60;;
7479;SDS011;3781;42.272;22.658;2022-08-27T00:21:36;6.67;;;2.70;;
7479;SDS011;3781;42.272;22.658;2022-08-27T00:24:03;7.90;;;2.60;;
7479;SDS011;3781;42.272;22.658;2022-08-27T00:26:30;1.73;;;1.63;;
7479;SDS011;3781;42.272;22.658;2022-08-27T00:28:57;3.77;;;1.67;;
7479;SDS011;3781;42.272;22.658;2022-08-27T00:31:24;1.97;;;1.87;;
7479;SDS011;3781;42.272;22.658;2022-08-27T00:33:51;8.00;;;2.17;;
7479;SDS011;3781;42.272;22.658;2022-08-27T00:36:19;3.77;;;1.57;;
7479;SDS011;3781;42.272;22.658;2022-08-27T00:38:46;2.93;;;1.70;;
7479;SDS011;3781;42.272;22.658;2022-08-27T00:41:13;2.20;;;2.00;;
7479;SDS011;3781;42.272;22.658;2022-08-27T00:43:44;3.27;;;1.53;;
7479;SDS011;3781;42.272;22.658;2022-08-27T00:46:15;6.73;;;2.77;;
7479;SDS011;3781;42.272;22.658;2022-08-27T00:48:46;3.03;;;2.07;;
7479;SDS011;3781;42.272;22.658;2022-08-27T00:51:13;2.47;;;1.67;;
7479;SDS011;3781;42.272;22.658;2022-08-27T00:53:41;4.37;;;1.97;;
7479;SDS011;3781;42.272;22.658;2022-08-27T00:56:09;4.40;;;1.97;;
7479;SDS011;3781;42.272;22.658;2022-08-27T00:58:40;8.30;;;2.10;;
7479;SDS011;3781;42.272;22.658;2022-08-27T01:01:09;2.37;;;2.17;;
7479;SDS011;3781;42.272;22.658;2022-08-27T01:03:38;3.63;;;1.77;;
7479;SDS011;3781;42.272;22.658;2022-08-27T01:06:08;3.50;;;1.50;;
7479;SDS011;3781;42.272;22.658;2022-08-27T01:08:37;5.00;;;1.80;;
7479;SDS011;3781;42.272;22.658;2022-08-27T01:11:08;5.90;;;1.60;;
7479;SDS011;3781;42.272;22.658;2022-08-27T01:13:35;4.47;;;2.00;;
7479;SDS011;3781;42.272;22.658;2022-08-27T01:16:03;1.60;;;1.50;;
7479;SDS011;3781;42.272;22.658;2022-08-27T01:18:32;2.47;;;2.27;;
7479;SDS011;3781;42.272;22.658;2022-08-27T01:21:02;2.90;;;1.57;;
7479;SDS011;3781;42.272;22.658;2022-08-27T01:23:36;6.13;;;2.03;;
7479;SDS011;3781;42.272;22.658;2022-08-27T01:26:11;2.17;;;1.63;;
7479;SDS011;3781;42.272;22.658;2022-08-27T01:28:40;4.20;;;1.70;;
7479;SDS011;3781;42.272;22.658;2022-08-27T01:31:09;2.60;;;1.60;;
7479;SDS011;3781;42.272;22.658;2022-08-27T01:33:37;3.43;;;2.07;;
7479;SDS011;3781;42.272;22.658;2022-08-27T01:36:05;3.63;;;2.37;;
7479;SDS011;3781;42.272;22.658;2022-08-27T01:38:33;4.23;;;2.47;;
7479;SDS011;3781;42.272;22.658;2022-08-27T01:41:00;1.63;;;1.50;;
7479;SDS011;3781;42.272;22.658;2022-08-27T01:43:29;9.47;;;2.53;;
7479;SDS011;3781;42.272;22.658;2022-08-27T01:45:56;3.13;;;1.77;;
7479;SDS011;3781;42.272;22.658;2022-08-27T01:48:23;7.97;;;2.67;;
7479;SDS011;3781;42.272;22.658;2022-08-27T01:50:50;2.60;;;2.30;;
7479;SDS011;3781;42.272;22.658;2022-08-27T01:53:18;6.70;;;1.90;;
7479;SDS011;3781;42.272;22.658;2022-08-27T01:55:46;4.10;;;1.60;;
7479;SDS011;3781;42.272;22.658;2022-08-27T01:58:15;2.03;;;1.83;;
7479;SDS011;3781;42.272;22.658;2022-08-27T02:00:45;2.83;;;2.57;;
7479;SDS011;3781;42.272;22.658;2022-08-27T02:03:15;3.97;;;2.10;;
7479;SDS011;3781;42.272;22.658;2022-08-27T02:05:43;3.33;;;2.47;;
7479;SDS011;3781;42.272;22.658;2022-08-27T02:08:11;4.93;;;1.93;;
7479;SDS011;3781;42.272;22.658;2022-08-27T02:10:40;2.27;;;1.90;;
7479;SDS011;3781;42.272;22.658;2022-08-27T02:13:08;3.30;;;2.20;;
7479;SDS011;3781;42.272;22.658;2022-08-27T02:15:37;2.77;;;1.90;;
7479;SDS011;3781;42.272;22.658;2022-08-27T02:18:07;6.03;;;2.33;;
7479;SDS011;3781;42.272;22.658;2022-08-27T02:20:35;2.10;;;1.70;;
7479;SDS011;3781;42.272;22.658;2022-08-27T02:23:03;3.43;;;2.13;;
7479;SDS011;3781;42.272;22.658;2022-08-27T02:25:30;1.40;;;1.30;;
7479;SDS011;3781;42.272;22.658;2022-08-27T02:27:57;7.80;;;1.97;;
7479;SDS011;3781;42.272;22.658;2022-08-27T02:30:24;2.90;;;2.27;;
7479;SDS011;3781;42.272;22.658;2022-08-27T02:32:52;4.53;;;1.47;;
7479;SDS011;3781;42.272;22.658;2022-08-27T02:35:21;3.80;;;2.60;;
7479;SDS011;3781;42.272;22.658;2022-08-27T02:37:50;8.40;;;1.93;;
7479;SDS011;3781;42.272;22.658;2022-08-27T02:40:18;3.90;;;2.00;;
7479;SDS011;3781;42.272;22.658;2022-08-27T02:42:47;6.03;;;1.97;;
7479;SDS011;3781;42.272;22.658;2022-08-27T02:45:14;5.83;;;2.23;;
7479;SDS011;3781;42.272;22.658;2022-08-27T02:47:42;8.47;;;2.07;;
7479;SDS011;3781;42.272;22.658;2022-08-27T02:50:09;3.03;;;2.10;;
7479;SDS011;3781;42.272;22.658;2022-08-27T02:52:38;3.53;;;1.67;;
7479;SDS011;3781;42.272;22.658;2022-08-27T02:55:06;6.07;;;2.83;;
7479;SDS011;3781;42.272;22.658;2022-08-27T02:57:33;3.10;;;2.57;;
7479;SDS011;3781;42.272;22.658;2022-08-27T03:00:00;3.37;;;2.13;;
7479;SDS011;3781;42.272;22.658;2022-08-27T03:02:29;2.40;;;1.60;;
7479;SDS011;3781;42.272;22.658;2022-08-27T03:04:56;10.60;;;1.80;;
7479;SDS011;3781;42.272;22.658;2022-08-27T03:07:23;3.47;;;2.27;;
7479;SDS011;3781;42.272;22.658;2022-08-27T03:09:51;2.20;;;2.00;;
7479;SDS011;3781;42.272;22.658;2022-08-27T03:12:18;8.27;;;2.13;;
7479;SDS011;3781;42.272;22.658;2022-08-27T03:14:45;2.53;;;2.00;;
7479;SDS011;3781;42.272;22.658;2022-08-27T03:17:12;2.20;;;2.00;;
7479;SDS011;3781;42.272;22.658;2022-08-27T03:19:57;2.77;;;2.27;;
7479;SDS011;3781;42.272;22.658;2022-08-27T03:22:23;3.20;;;1.97;;
7479;SDS011;3781;42.272;22.658;2022-08-27T03:24:52;5.07;;;2.93;;
7479;SDS011;3781;42.272;22.658;2022-08-27T03:27:20;3.20;;;2.87;;
7479;SDS011;3781;42.272;22.658;2022-08-27T03:29:47;2.80;;;2.50;;
7479;SDS011;3781;42.272;22.658;2022-08-27T03:32:13;6.00;;;4.00;;
7479;SDS011;3781;42.272;22.658;2022-08-27T03:34:40;3.77;;;2.60;;
7479;SDS011;3781;42.272;22.658;2022-08-27T03:37:07;3.17;;;2.87;;
7479;SDS011;3781;42.272;22.658;2022-08-27T03:39:34;3.93;;;2.67;;
7479;SDS011;3781;42.272;22.658;2022-08-27T03:42:02;2.67;;;2.33;;
7479;SDS011;3781;42.272;22.658;2022-08-27T03:44:29;4.83;;;3.07;;
7479;SDS011;3781;42.272;22.658;2022-08-27T03:46:57;3.87;;;2.87;;
7479;SDS011;3781;42.272;22.658;2022-08-27T03:49:24;4.10;;;2.83;;
7479;SDS011;3781;42.272;22.658;2022-08-27T03:51:51;2.60;;;2.40;;
7479;SDS011;3781;42.272;22.658;2022-08-27T03:54:18;6.63;;;2.73;;
7479;SDS011;3781;42.272;22.658;2022-08-27T03:56:45;7.03;;;2.70;;
7479;SDS011;3781;42.272;22.658;2022-08-27T03:59:13;8.07;;;2.50;;
7479;SDS011;3781;42.272;22.658;2022-08-27T04:01:40;11.93;;;3.00;;
7479;SDS011;3781;42.272;22.658;2022-08-27T04:04:07;4.63;;;2.43;;
7479;SDS011;3781;42.272;22.658;2022-08-27T04:06:34;7.07;;;2.57;;
7479;SDS011;3781;42.272;22.658;2022-08-27T04:09:02;10.27;;;2.73;;
7479;SDS011;3781;42.272;22.658;2022-08-27T04:11:29;11.20;;;3.57;;
7479;SDS011;3781;42.272;22.658;2022-08-27T04:13:56;3.20;;;2.90;;
7479;SDS011;3781;42.272;22.658;2022-08-27T04:16:24;3.23;;;2.73;;
7479;SDS011;3781;42.272;22.658;2022-08-27T04:18:51;7.70;;;3.00;;
7479;SDS011;3781;42.272;22.658;2022-08-27T04:21:19;4.83;;;2.47;;
7479;SDS011;3781;42.272;22.658;2022-08-27T04:23:46;8.83;;;3.43;;
7479;SDS011;3781;42.272;22.658;2022-08-27T04:26:13;5.77;;;2.73;;
7479;SDS011;3781;42.272;22.658;2022-08-27T04:28:40;5.83;;;3.30;;
7479;SDS011;3781;42.272;22.658;2022-08-27T04:31:08;4.43;;;3.13;;
7479;SDS011;3781;42.272;22.658;2022-08-27T04:33:36;2.90;;;2.60;;
7479;SDS011;3781;42.272;22.658;2022-08-27T04:36:04;3.00;;;2.80;;
7479;SDS011;3781;42.272;22.658;2022-08-27T04:38:33;3.33;;;2.33;;
7479;SDS011;3781;42.272;22.658;2022-08-27T04:41:01;3.63;;;2.40;;
7479;SDS011;3781;42.272;22.658;2022-08-27T04:43:47;3.03;;;2.33;;
7479;SDS011;3781;42.272;22.658;2022-08-27T04:46:20;3.93;;;2.50;;
7479;SDS011;3781;42.272;22.658;2022-08-27T04:48:49;5.47;;;2.57;;
7479;SDS011;3781;42.272;22.658;2022-08-27T04:51:16;8.90;;;2.70;;
7479;SDS011;3781;42.272;22.658;2022-08-27T04:53:43;2.57;;;2.33;;
7479;SDS011;3781;42.272;22.658;2022-08-27T04:56:11;3.33;;;2.13;;
7479;SDS011;3781;42.272;22.658;2022-08-27T04:58:40;3.50;;;2.70;;
7479;SDS011;3781;42.272;22.658;2022-08-27T05:01:07;11.47;;;3.20;;
7479;SDS011;3781;42.272;22.658;2022-08-27T05:03:35;6.37;;;2.47;;
7479;SDS011;3781;42.272;22.658;2022-08-27T05:06:03;5.00;;;3.03;;
7479;SDS011;3781;42.272;22.658;2022-08-27T05:08:31;3.07;;;2.30;;
7479;SDS011;3781;42.272;22.658;2022-08-27T05:10:59;7.17;;;3.20;;
7479;SDS011;3781;42.272;22.658;2022-08-27T05:13:26;11.17;;;3.53;;
7479;SDS011;3781;42.272;22.658;2022-08-27T05:15:56;4.10;;;3.57;;
7479;SDS011;3781;42.272;22.658;2022-08-27T05:18:24;4.63;;;3.30;;
7479;SDS011;3781;42.272;22.658;2022-08-27T05:20:51;5.33;;;2.83;;
7479;SDS011;3781;42.272;22.658;2022-08-27T05:23:20;4.77;;;3.20;;
7479;SDS011;3781;42.272;22.658;2022-08-27T05:25:47;4.53;;;3.47;;
7479;SDS011;3781;42.272;22.658;2022-08-27T05:28:16;3.17;;;2.90;;
7479;SDS011;3781;42.272;22.658;2022-08-27T05:30:46;5.70;;;3.37;;
7479;SDS011;3781;42.272;22.658;2022-08-27T05:33:15;5.73;;;3.07;;
7479;SDS011;3781;42.272;22.658;2022-08-27T05:35:45;4.30;;;2.70;;
7479;SDS011;3781;42.272;22.658;2022-08-27T05:38:14;9.40;;;3.43;;
7479;SDS011;3781;42.272;22.658;2022-08-27T05:40:44;5.60;;;3.83;;
7479;SDS011;3781;42.272;22.658;2022-08-27T05:43:12;3.47;;;2.90;;
7479;SDS011;3781;42.272;22.658;2022-08-27T05:45:40;4.90;;;2.43;;
7479;SDS011;3781;42.272;22.658;2022-08-27T05:48:08;9.17;;;2.67;;
7479;SDS011;3781;42.272;22.658;2022-08-27T05:50:36;4.40;;;2.53;;
7479;SDS011;3781;42.272;22.658;2022-08-27T05:53:03;2.57;;;2.30;;
7479;SDS011;3781;42.272;22.658;2022-08-27T05:55:34;3.90;;;2.57;;
7479;SDS011;3781;42.272;22.658;2022-08-27T05:58:03;3.67;;;2.70;;
7479;SDS011;3781;42.272;22.658;2022-08-27T06:00:30;6.43;;;3.03;;
7479;SDS011;3781;42.272;22.658;2022-08-27T06:03:14;7.23;;;3.03;;
7479;SDS011;3781;42.272;22.658;2022-08-27T06:05:41;13.13;;;2.97;;
7479;SDS011;3781;42.272;22.658;2022-08-27T06:08:08;6.95;;;2.60;;
7479;SDS011;3781;42.272;22.658;2022-08-27T06:10:37;3.60;;;2.50;;
7479;SDS011;3781;42.272;22.658;2022-08-27T06:13:06;5.50;;;2.63;;
7479;SDS011;3781;42.272;22.658;2022-08-27T06:15:33;3.70;;;2.33;;
7479;SDS011;3781;42.272;22.658;2022-08-27T06:18:00;4.72;;;3.03;;
7479;SDS011;3781;42.272;22.658;2022-08-27T06:20:29;4.80;;;3.00;;
7479;SDS011;3781;42.272;22.658;2022-08-27T06:22:56;4.20;;;3.07;;
7479;SDS011;3781;42.272;22.658;2022-08-27T06:25:23;4.47;;;2.93;;
7479;SDS011;3781;42.272;22.658;2022-08-27T06:27:50;5.60;;;2.57;;
7479;SDS011;3781;42.272;22.658;2022-08-27T06:30:18;8.30;;;3.67;;
7479;SDS011;3781;42.272;22.658;2022-08-27T06:32:45;3.03;;;2.73;;
7479;SDS011;3781;42.272;22.658;2022-08-27T06:35:12;3.27;;;2.73;;
7479;SDS011;3781;42.272;22.658;2022-08-27T06:37:39;5.73;;;3.50;;
7479;SDS011;3781;42.272;22.658;2022-08-27T06:40:06;4.00;;;2.83;;
7479;SDS011;3781;42.272;22.658;2022-08-27T06:42:35;3.53;;;3.03;;
7479;SDS011;3781;42.272;22.658;2022-08-27T06:45:03;7.07;;;3.30;;
7479;SDS011;3781;42.272;22.658;2022-08-27T06:47:32;4.03;;;3.03;;
7479;SDS011;3781;42.272;22.658;2022-08-27T06:49:59;5.07;;;2.60;;
7479;SDS011;3781;42.272;22.658;2022-08-27T06:52:26;4.30;;;3.10;;
7479;SDS011;3781;42.272;22.658;2022-08-27T06:54:52;6.80;;;2.97;;
7479;SDS011;3781;42.272;22.658;2022-08-27T06:57:19;5.27;;;2.83;;
7479;SDS011;3781;42.272;22.658;2022-08-27T06:59:48;4.57;;;2.83;;
7479;SDS011;3781;42.272;22.658;2022-08-27T07:02:16;4.10;;;2.90;;
7479;SDS011;3781;42.272;22.658;2022-08-27T07:04:44;5.10;;;2.60;;
7479;SDS011;3781;42.272;22.658;2022-08-27T07:07:11;5.60;;;2.83;;
7479;SDS011;3781;42.272;22.658;2022-08-27T07:09:39;5.37;;;2.73;;
7479;SDS011;3781;42.272;22.658;2022-08-27T07:12:06;5.37;;;2.83;;
7479;SDS011;3781;42.272;22.658;2022-08-27T07:14:33;4.57;;;2.77;;
7479;SDS011;3781;42.272;22.658;2022-08-27T07:17:00;6.20;;;2.80;;
7479;SDS011;3781;42.272;22.658;2022-08-27T07:19:27;4.87;;;2.80;;
7479;SDS011;3781;42.272;22.658;2022-08-27T07:21:55;5.50;;;2.63;;
7479;SDS011;3781;42.272;22.658;2022-08-27T07:24:23;4.20;;;3.23;;
7479;SDS011;3781;42.272;22.658;2022-08-27T07:26:50;6.07;;;3.30;;
7479;SDS011;3781;42.272;22.658;2022-08-27T07:29:16;4.43;;;2.77;;
7479;SDS011;3781;42.272;22.658;2022-08-27T07:31:44;5.07;;;2.97;;
7479;SDS011;3781;42.272;22.658;2022-08-27T07:34:11;2.67;;;2.37;;
7479;SDS011;3781;42.272;22.658;2022-08-27T07:36:37;3.13;;;2.70;;
7479;SDS011;3781;42.272;22.658;2022-08-27T07:39:06;3.83;;;2.87;;
7479;SDS011;3781;42.272;22.658;2022-08-27T07:41:33;6.33;;;3.37;;
7479;SDS011;3781;42.272;22.658;2022-08-27T07:44:22;2.43;;;2.23;;
7479;SDS011;3781;42.272;22.658;2022-08-27T07:46:52;9.37;;;3.10;;
7479;SDS011;3781;42.272;22.658;2022-08-27T07:49:19;5.27;;;2.07;;
7479;SDS011;3781;42.272;22.658;2022-08-27T07:51:47;3.43;;;2.47;;
7479;SDS011;3781;42.272;22.658;2022-08-27T07:54:16;4.77;;;2.03;;
7479;SDS011;3781;42.272;22.658;2022-08-27T07:56:43;4.67;;;2.80;;
7479;SDS011;3781;42.272;22.658;2022-08-27T07:59:10;8.67;;;2.47;;
7479;SDS011;3781;42.272;22.658;2022-08-27T08:01:37;2.83;;;2.53;;
7479;SDS011;3781;42.272;22.658;2022-08-27T08:04:06;4.33;;;2.67;;
7479;SDS011;3781;42.272;22.658;2022-08-27T08:06:34;3.90;;;2.60;;
7479;SDS011;3781;42.272;22.658;2022-08-27T08:09:02;3.17;;;2.77;;
7479;SDS011;3781;42.272;22.658;2022-08-27T08:11:31;3.73;;;2.70;;
7479;SDS011;3781;42.272;22.658;2022-08-27T08:13:59;4.65;;;2.55;;
7479;SDS011;3781;42.272;22.658;2022-08-27T08:16:26;6.63;;;2.50;;
7479;SDS011;3781;42.272;22.658;2022-08-27T08:18:53;3.58;;;2.83;;
7479;SDS011;3781;42.272;22.658;2022-08-27T08:21:20;8.55;;;2.55;;
7479;SDS011;3781;42.272;22.658;2022-08-27T08:23:47;3.55;;;3.10;;
7479;SDS011;3781;42.272;22.658;2022-08-27T08:26:14;3.08;;;2.67;;
7479;SDS011;3781;42.272;22.658;2022-08-27T08:28:42;2.65;;;2.38;;
7479;SDS011;3781;42.272;22.658;2022-08-27T08:31:10;3.03;;;2.58;;
7479;SDS011;3781;42.272;22.658;2022-08-27T08:33:37;3.45;;;2.33;;
7479;SDS011;3781;42.272;22.658;2022-08-27T08:36:04;3.35;;;3.03;;
7479;SDS011;3781;42.272;22.658;2022-08-27T08:38:32;4.80;;;3.10;;
7479;SDS011;3781;42.272;22.658;2022-08-27T08:40:59;2.47;;;2.33;;
7479;SDS011;3781;42.272;22.658;2022-08-27T08:43:29;6.38;;;2.40;;
7479;SDS011;3781;42.272;22.658;2022-08-27T08:46:04;5.30;;;1.73;;
7479;SDS011;3781;42.272;22.658;2022-08-27T08:48:38;4.97;;;1.85;;
7479;SDS011;3781;42.272;22.658;2022-08-27T08:51:12;4.07;;;1.80;;
7479;SDS011;3781;42.272;22.658;2022-08-27T08:53:48;2.80;;;1.90;;
7479;SDS011;3781;42.272;22.658;2022-08-27T08:56:20;3.63;;;2.15;;
7479;SDS011;3781;42.272;22.658;2022-08-27T08:58:55;4.43;;;2.20;;
7479;SDS011;3781;42.272;22.658;2022-08-27T09:01:26;5.07;;;2.25;;
7479;SDS011;3781;42.272;22.658;2022-08-27T09:03:54;3.88;;;2.53;;
7479;SDS011;3781;42.272;22.658;2022-08-27T09:06:28;7.10;;;2.40;;
7479;SDS011;3781;42.272;22.658;2022-08-27T09:09:03;2.70;;;2.38;;
7479;SDS011;3781;42.272;22.658;2022-08-27T09:11:39;2.25;;;2.08;;
7479;SDS011;3781;42.272;22.658;2022-08-27T09:14:17;3.22;;;2.50;;
7479;SDS011;3781;42.272;22.658;2022-08-27T09:16:51;2.55;;;2.35;;
7479;SDS011;3781;42.272;22.658;2022-08-27T09:19:18;3.63;;;2.38;;
7479;SDS011;3781;42.272;22.658;2022-08-27T09:21:47;2.85;;;2.05;;
7479;SDS011;3781;42.272;22.658;2022-08-27T09:24:23;4.25;;;2.35;;
7479;SDS011;3781;42.272;22.658;2022-08-27T09:27:08;6.53;;;2.40;;
7479;SDS011;3781;42.272;22.658;2022-08-27T09:29:44;3.85;;;2.10;;
7479;SDS011;3781;42.272;22.658;2022-08-27T09:32:14;3.95;;;2.13;;
7479;SDS011;3781;42.272;22.658;2022-08-27T09:34:41;3.53;;;2.30;;
7479;SDS011;3781;42.272;22.658;2022-08-27T09:37:11;2.00;;;1.90;;
7479;SDS011;3781;42.272;22.658;2022-08-27T09:39:43;7.32;;;3.15;;
7479;SDS011;3781;42.272;22.658;2022-08-27T09:42:30;2.90;;;2.00;;
7479;SDS011;3781;42.272;22.658;2022-08-27T09:45:05;2.17;;;2.08;;
7479;SDS011;3781;42.272;22.658;2022-08-27T09:47:41;8.38;;;3.47;;
7479;SDS011;3781;42.272;22.658;2022-08-27T09:50:09;2.53;;;2.30;;
7479;SDS011;3781;42.272;22.658;2022-08-27T09:52:37;13.55;;;3.10;;
7479;SDS011;3781;42.272;22.658;2022-08-27T09:55:24;3.67;;;2.08;;
7479;SDS011;3781;42.272;22.658;2022-08-27T09:57:56;3.22;;;2.50;;
7479;SDS011;3781;42.272;22.658;2022-08-27T10:00:34;4.07;;;2.60;;
7479;SDS011;3781;42.272;22.658;2022-08-27T10:03:04;3.50;;;2.92;;
7479;SDS011;3781;42.272;22.658;2022-08-27T10:05:35;2.70;;;2.42;;
7479;SDS011;3781;42.272;22.658;2022-08-27T10:08:04;3.58;;;3.17;;
7479;SDS011;3781;42.272;22.658;2022-08-27T10:10:43;7.20;;;2.72;;
7479;SDS011;3781;42.272;22.658;2022-08-27T10:13:19;7.03;;;3.10;;
7479;SDS011;3781;42.272;22.658;2022-08-27T10:15:54;9.13;;;2.92;;
7479;SDS011;3781;42.272;22.658;2022-08-27T10:18:32;3.08;;;2.78;;
7479;SDS011;3781;42.272;22.658;2022-08-27T10:21:07;3.10;;;2.70;;
7479;SDS011;3781;42.272;22.658;2022-08-27T10:23:41;3.25;;;2.65;;
7479;SDS011;3781;42.272;22.658;2022-08-27T10:26:18;2.95;;;2.67;;
7479;SDS011;3781;42.272;22.658;2022-08-27T10:28:53;5.18;;;2.65;;
7479;SDS011;3781;42.272;22.658;2022-08-27T10:31:32;5.20;;;3.00;;
7479;SDS011;3781;42.272;22.658;2022-08-27T10:34:10;6.78;;;2.65;;
7479;SDS011;3781;42.272;22.658;2022-08-27T10:36:48;4.50;;;2.63;;
7479;SDS011;3781;42.272;22.658;2022-08-27T10:39:26;4.78;;;2.53;;
7479;SDS011;3781;42.272;22.658;2022-08-27T10:42:12;4.53;;;2.75;;
7479;SDS011;3781;42.272;22.658;2022-08-27T10:47:49;4.15;;;3.00;;
7479;SDS011;3781;42.272;22.658;2022-08-27T10:50:26;5.50;;;2.78;;
7479;SDS011;3781;42.272;22.658;2022-08-27T10:52:57;3.10;;;2.78;;
7479;SDS011;3781;42.272;22.658;2022-08-27T10:55:31;4.32;;;2.85;;
7479;SDS011;3781;42.272;22.658;2022-08-27T10:58:10;6.32;;;3.08;;
7479;SDS011;3781;42.272;22.658;2022-08-27T11:00:47;3.25;;;2.95;;
7479;SDS011;3781;42.272;22.658;2022-08-27T11:03:23;3.63;;;2.90;;
7479;SDS011;3781;42.272;22.658;2022-08-27T11:05:57;4.85;;;2.70;;
7479;SDS011;3781;42.272;22.658;2022-08-27T11:08:29;4.40;;;2.58;;
7479;SDS011;3781;42.272;22.658;2022-08-27T11:11:04;4.43;;;2.58;;
7479;SDS011;3781;42.272;22.658;2022-08-27T11:13:36;4.63;;;3.33;;
7479;SDS011;3781;42.272;22.658;2022-08-27T11:16:06;3.80;;;2.63;;
7479;SDS011;3781;42.272;22.658;2022-08-27T11:18:39;3.83;;;2.50;;
7479;SDS011;3781;42.272;22.658;2022-08-27T11:21:13;4.47;;;2.58;;
7479;SDS011;3781;42.272;22.658;2022-08-27T11:23:45;5.78;;;2.92;;
7479;SDS011;3781;42.272;22.658;2022-08-27T11:26:18;4.03;;;2.85;;
7479;SDS011;3781;42.272;22.658;2022-08-27T11:28:46;3.72;;;2.83;;
7479;SDS011;3781;42.272;22.658;2022-08-27T11:31:17;6.13;;;2.92;;
7479;SDS011;3781;42.272;22.658;2022-08-27T11:33:51;3.78;;;2.97;;
7479;SDS011;3781;42.272;22.658;2022-08-27T11:36:35;6.00;;;4.00;;
7479;SDS011;3781;42.272;22.658;2022-08-27T11:39:15;8.52;;;3.55;;
7479;SDS011;3781;42.272;22.658;2022-08-27T11:42:01;6.50;;;3.40;;
7479;SDS011;3781;42.272;22.658;2022-08-27T11:44:38;7.43;;;3.40;;
7479;SDS011;3781;42.272;22.658;2022-08-27T11:47:08;6.38;;;3.38;;
7479;SDS011;3781;42.272;22.658;2022-08-27T11:49:41;7.25;;;3.67;;
7479;SDS011;3781;42.272;22.658;2022-08-27T11:52:12;4.63;;;3.78;;
7479;SDS011;3781;42.272;22.658;2022-08-27T11:54:48;3.72;;;3.17;;
7479;SDS011;3781;42.272;22.658;2022-08-27T11:57:25;4.10;;;3.72;;
7479;SDS011;3781;42.272;22.658;2022-08-27T11:59:54;9.80;;;3.00;;
7479;SDS011;3781;42.272;22.658;2022-08-27T12:02:22;6.32;;;2.42;;
7479;SDS011;3781;42.272;22.658;2022-08-27T12:04:51;3.63;;;2.95;;
7479;SDS011;3781;42.272;22.658;2022-08-27T12:07:32;5.07;;;3.33;;
7479;SDS011;3781;42.272;22.658;2022-08-27T12:10:05;4.95;;;3.20;;
7479;SDS011;3781;42.272;22.658;2022-08-27T12:12:45;5.47;;;3.38;;
7479;SDS011;3781;42.272;22.658;2022-08-27T12:15:26;7.25;;;3.38;;
7479;SDS011;3781;42.272;22.658;2022-08-27T12:17:59;10.75;;;3.30;;
7479;SDS011;3781;42.272;22.658;2022-08-27T12:20:35;3.30;;;3.00;;
7479;SDS011;3781;42.272;22.658;2022-08-27T12:23:14;3.30;;;3.00;;
7479;SDS011;3781;42.272;22.658;2022-08-27T12:26:26;4.15;;;3.65;;
7479;SDS011;3781;42.272;22.658;2022-08-27T12:31:54;3.90;;;3.60;;
7479;SDS011;3781;42.272;22.658;2022-08-27T12:34:27;6.75;;;3.30;;
7479;SDS011;3781;42.272;22.658;2022-08-27T12:36:57;6.40;;;3.33;;
7479;SDS011;3781;42.272;22.658;2022-08-27T12:39:26;4.55;;;2.72;;
7479;SDS011;3781;42.272;22.658;2022-08-27T12:41:57;5.90;;;3.22;;
7479;SDS011;3781;42.272;22.658;2022-08-27T12:44:24;7.95;;;3.17;;
7479;SDS011;3781;42.272;22.658;2022-08-27T12:46:53;3.80;;;3.50;;
7479;SDS011;3781;42.272;22.658;2022-08-27T12:49:25;4.75;;;2.85;;
7479;SDS011;3781;42.272;22.658;2022-08-27T12:51:55;5.30;;;3.45;;
7479;SDS011;3781;42.272;22.658;2022-08-27T12:54:33;4.00;;;2.92;;
7479;SDS011;3781;42.272;22.658;2022-08-27T12:57:09;3.85;;;2.92;;
7479;SDS011;3781;42.272;22.658;2022-08-27T13:02:40;3.65;;;3.33;;
7479;SDS011;3781;42.272;22.658;2022-08-27T13:05:34;4.07;;;3.25;;
7479;SDS011;3781;42.272;22.658;2022-08-27T13:08:03;6.75;;;3.85;;
7479;SDS011;3781;42.272;22.658;2022-08-27T13:10:31;5.95;;;3.58;;
7479;SDS011;3781;42.272;22.658;2022-08-27T13:12:59;9.07;;;3.72;;
7479;SDS011;3781;42.272;22.658;2022-08-27T13:15:29;4.10;;;3.20;;
7479;SDS011;3781;42.272;22.658;2022-08-27T13:17:58;5.47;;;3.53;;
7479;SDS011;3781;42.272;22.658;2022-08-27T13:20:25;5.13;;;3.40;;
7479;SDS011;3781;42.272;22.658;2022-08-27T13:22:52;6.93;;;3.75;;
7479;SDS011;3781;42.272;22.658;2022-08-27T13:25:22;4.82;;;3.40;;
7479;SDS011;3781;42.272;22.658;2022-08-27T13:27:55;6.15;;;3.53;;
7479;SDS011;3781;42.272;22.658;2022-08-27T13:30:28;4.47;;;3.40;;
7479;SDS011;3781;42.272;22.658;2022-08-27T13:32:57;4.47;;;3.30;;
7479;SDS011;3781;42.272;22.658;2022-08-27T13:35:25;8.05;;;2.45;;
7479;SDS011;3781;42.272;22.658;2022-08-27T13:37:52;5.13;;;3.15;;
7479;SDS011;3781;42.272;22.658;2022-08-27T13:40:22;4.68;;;3.72;;
7479;SDS011;3781;42.272;22.658;2022-08-27T13:42:54;4.25;;;3.00;;
7479;SDS011;3781;42.272;22.658;2022-08-27T13:45:23;3.20;;;2.97;;
7479;SDS011;3781;42.272;22.658;2022-08-27T13:47:51;6.93;;;3.50;;
7479;SDS011;3781;42.272;22.658;2022-08-27T13:50:20;5.13;;;3.70;;
7479;SDS011;3781;42.272;22.658;2022-08-27T13:52:49;5.35;;;3.45;;
7479;SDS011;3781;42.272;22.658;2022-08-27T13:55:36;6.22;;;3.58;;
7479;SDS011;3781;42.272;22.658;2022-08-27T13:58:12;8.57;;;3.65;;
7479;SDS011;3781;42.272;22.658;2022-08-27T14:00:40;5.57;;;3.70;;
7479;SDS011;3781;42.272;22.658;2022-08-27T14:05:50;3.97;;;3.13;;
7479;SDS011;3781;42.272;22.658;2022-08-27T14:08:17;5.53;;;3.65;;
7479;SDS011;3781;42.272;22.658;2022-08-27T14:10:47;11.57;;;3.38;;
7479;SDS011;3781;42.272;22.658;2022-08-27T14:13:25;5.95;;;3.72;;
7479;SDS011;3781;42.272;22.658;2022-08-27T14:15:54;4.10;;;3.35;;
7479;SDS011;3781;42.272;22.658;2022-08-27T14:18:23;3.47;;;3.17;;
7479;SDS011;3781;42.272;22.658;2022-08-27T14:20:55;4.90;;;3.28;;
7479;SDS011;3781;42.272;22.658;2022-08-27T14:23:23;4.25;;;2.92;;
7479;SDS011;3781;42.272;22.658;2022-08-27T14:25:51;4.30;;;3.25;;
7479;SDS011;3781;42.272;22.658;2022-08-27T14:28:19;4.70;;;4.18;;
7479;SDS011;3781;42.272;22.658;2022-08-27T14:30:47;7.90;;;3.45;;
7479;SDS011;3781;42.272;22.658;2022-08-27T14:33:14;6.50;;;2.60;;
7479;SDS011;3781;42.272;22.658;2022-08-27T14:35:42;7.70;;;3.40;;
7479;SDS011;3781;42.272;22.658;2022-08-27T14:38:11;4.15;;;3.42;;
7479;SDS011;3781;42.272;22.658;2022-08-27T14:40:40;6.45;;;3.10;;
7479;SDS011;3781;42.272;22.658;2022-08-27T14:43:07;4.32;;;3.30;;
7479;SDS011;3781;42.272;22.658;2022-08-27T14:45:35;8.88;;;3.50;;
7479;SDS011;3781;42.272;22.658;2022-08-27T14:48:05;5.97;;;4.15;;
7479;SDS011;3781;42.272;22.658;2022-08-27T14:50:33;5.18;;;3.15;;
7479;SDS011;3781;42.272;22.658;2022-08-27T14:53:00;3.08;;;2.88;;
7479;SDS011;3781;42.272;22.658;2022-08-27T14:55:27;8.45;;;3.47;;
7479;SDS011;3781;42.272;22.658;2022-08-27T14:57:55;5.20;;;3.20;;
7479;SDS011;3781;42.272;22.658;2022-08-27T15:00:22;3.28;;;3.00;;
7479;SDS011;3781;42.272;22.658;2022-08-27T15:02:50;7.00;;;4.00;;
7479;SDS011;3781;42.272;22.658;2022-08-27T15:05:18;6.47;;;3.90;;
7479;SDS011;3781;42.272;22.658;2022-08-27T15:07:45;3.25;;;2.97;;
7479;SDS011;3781;42.272;22.658;2022-08-27T15:10:12;4.13;;;3.45;;
7479;SDS011;3781;42.272;22.658;2022-08-27T15:12:39;6.22;;;3.17;;
7479;SDS011;3781;42.272;22.658;2022-08-27T15:15:07;3.65;;;3.35;;
7479;SDS011;3781;42.272;22.658;2022-08-27T15:17:35;4.85;;;2.78;;
7479;SDS011;3781;42.272;22.658;2022-08-27T15:20:03;7.72;;;3.78;;
7479;SDS011;3781;42.272;22.658;2022-08-27T15:22:35;6.00;;;3.10;;
7479;SDS011;3781;42.272;22.658;2022-08-27T15:25:04;5.93;;;3.33;;
7479;SDS011;3781;42.272;22.658;2022-08-27T15:27:32;7.85;;;2.97;;
7479;SDS011;3781;42.272;22.658;2022-08-27T15:29:59;3.20;;;3.00;;